createdAt,value
2016-08-12T00:00:40.090Z,0
2016-08-12T00:01:41.209Z,0
2016-08-12T00:03:39.853Z,0
2016-08-12T00:04:40.514Z,0
2016-08-12T00:05:39.867Z,0
2016-08-12T00:06:41.236Z,0
2016-08-12T00:07:41.946Z,0
2016-08-12T00:08:40.537Z,0
2016-08-12T00:09:40.687Z,0
2016-08-12T00:10:40.555Z,0
2016-08-12T00:11:40.000Z,0
2016-08-12T00:12:40.563Z,0
2016-08-12T00:14:10.373Z,0
2016-08-12T00:14:40.579Z,0
2016-08-12T00:15:39.875Z,0
2016-08-12T00:16:40.583Z,0
2016-08-12T00:17:41.302Z,0
2016-08-12T00:18:40.593Z,0
2016-08-12T00:19:41.310Z,0
2016-08-12T00:20:41.323Z,0
2016-08-12T00:21:40.616Z,0
2016-08-12T00:22:40.666Z,0
2016-08-12T00:23:42.088Z,0
2016-08-12T00:24:42.014Z,0
2016-08-12T00:25:42.050Z,0
2016-08-12T00:26:42.054Z,0
2016-08-12T00:27:42.076Z,0
2016-08-12T00:28:41.368Z,0
2016-08-12T00:29:41.372Z,0
2016-08-12T00:30:39.956Z,0
2016-08-12T00:31:40.462Z,0
2016-08-12T00:32:42.145Z,0
2016-08-12T00:33:42.930Z,0
2016-08-12T00:34:42.099Z,0
2016-08-12T00:35:42.196Z,0
2016-08-12T00:36:39.991Z,0
2016-08-12T00:37:40.694Z,0
2016-08-12T00:38:41.423Z,0
2016-08-12T00:39:41.422Z,0
2016-08-12T00:40:40.748Z,0
2016-08-12T00:41:42.147Z,0
2016-08-12T00:42:40.021Z,0
2016-08-12T00:43:40.040Z,0
2016-08-12T00:44:41.596Z,0
2016-08-12T00:45:40.756Z,0
2016-08-12T00:46:41.753Z,0
2016-08-12T00:47:41.480Z,0
2016-08-12T00:48:40.311Z,0
2016-08-12T00:49:41.476Z,0
2016-08-12T00:50:41.481Z,0
2016-08-12T00:51:40.079Z,0
2016-08-12T00:52:42.199Z,0
2016-08-12T00:53:40.098Z,0
2016-08-12T00:54:42.217Z,0
2016-08-12T00:55:42.222Z,0
2016-08-12T00:56:41.521Z,0
2016-08-12T00:57:42.324Z,0
2016-08-12T00:58:40.866Z,0
2016-08-12T00:59:41.542Z,0
2016-08-12T01:00:42.306Z,0
2016-08-12T01:01:40.835Z,0
2016-08-12T01:02:42.255Z,0
2016-08-12T01:03:41.564Z,0
2016-08-12T01:04:40.906Z,0
2016-08-12T01:05:41.624Z,0
2016-08-12T01:06:40.966Z,0
2016-08-12T01:07:40.166Z,0
2016-08-12T01:08:42.387Z,0
2016-08-12T01:09:40.893Z,0
2016-08-12T01:10:40.885Z,0
2016-08-12T01:11:41.598Z,0
2016-08-12T01:12:40.898Z,0
2016-08-12T01:13:42.837Z,0
2016-08-12T01:14:40.217Z,0
2016-08-12T01:15:42.380Z,0
2016-08-12T01:16:40.922Z,0
2016-08-12T01:17:41.634Z,0
2016-08-12T01:18:40.223Z,0
2016-08-12T01:19:41.894Z,0
2016-08-12T01:20:40.950Z,0
2016-08-12T01:21:42.364Z,0
2016-08-12T01:22:40.967Z,0
2016-08-12T01:23:41.671Z,0
2016-08-12T01:24:40.257Z,0
2016-08-12T01:25:41.687Z,0
2016-08-12T01:26:40.986Z,0
2016-08-12T01:27:42.400Z,0
2016-08-12T01:28:40.348Z,0
2016-08-12T01:29:40.999Z,0
2016-08-12T01:30:41.153Z,0
2016-08-12T01:31:41.010Z,0
2016-08-12T01:32:42.522Z,0
2016-08-12T01:33:39.674Z,0
2016-08-12T01:34:41.778Z,0
2016-08-12T01:35:40.331Z,0
2016-08-12T01:36:41.765Z,0
2016-08-12T01:37:41.042Z,0
2016-08-12T01:38:42.468Z,0
2016-08-12T01:39:41.053Z,0
2016-08-12T01:40:41.075Z,0
2016-08-12T01:41:41.156Z,0
2016-08-12T01:42:41.091Z,0
2016-08-12T01:43:43.539Z,0
2016-08-12T01:44:41.793Z,0
2016-08-12T01:45:41.998Z,0
2016-08-12T01:46:42.508Z,0
2016-08-12T01:47:41.806Z,0
2016-08-12T01:48:41.822Z,0
2016-08-12T01:49:40.404Z,0
2016-08-12T01:50:40.411Z,0
2016-08-12T01:51:41.119Z,0
2016-08-12T01:52:42.182Z,0
2016-08-12T01:53:40.426Z,0
2016-08-12T01:54:41.138Z,0
2016-08-12T01:55:41.853Z,0
2016-08-12T01:56:42.659Z,0
2016-08-12T01:57:41.861Z,0
2016-08-12T01:58:41.870Z,0
2016-08-12T01:59:41.173Z,0
2016-08-12T02:00:41.172Z,0
2016-08-12T02:01:42.645Z,0
2016-08-12T02:02:41.902Z,0
2016-08-12T02:03:39.819Z,0
2016-08-12T02:04:41.193Z,0
2016-08-12T02:05:42.860Z,0
2016-08-12T02:06:41.918Z,0
2016-08-12T02:07:41.419Z,0
2016-08-12T02:08:41.219Z,0
2016-08-12T02:09:42.835Z,0
2016-08-12T02:10:40.526Z,0
2016-08-12T02:11:40.531Z,0
2016-08-12T02:12:42.666Z,0
2016-08-12T02:13:40.596Z,0
2016-08-12T02:14:41.252Z,0
2016-08-12T02:15:41.264Z,0
2016-08-12T02:16:42.372Z,0
2016-08-12T02:17:42.738Z,0
2016-08-12T02:18:41.448Z,0
2016-08-12T02:19:42.693Z,0
2016-08-12T02:20:42.792Z,0
2016-08-12T02:21:42.011Z,0
2016-08-12T02:22:41.357Z,0
2016-08-12T02:23:41.354Z,0
2016-08-12T02:24:41.309Z,0
2016-08-12T02:25:42.026Z,0
2016-08-12T02:26:41.337Z,0
2016-08-12T02:27:42.490Z,0
2016-08-12T02:28:42.049Z,0
2016-08-12T02:29:41.591Z,0
2016-08-12T02:30:41.339Z,0
2016-08-12T02:31:40.642Z,0
2016-08-12T02:32:42.825Z,0
2016-08-12T02:33:40.670Z,0
2016-08-12T02:34:42.983Z,0
2016-08-12T02:35:42.079Z,0
2016-08-12T02:36:41.380Z,0
2016-08-12T02:37:39.966Z,0
2016-08-12T02:38:42.038Z,0
2016-08-12T02:39:42.107Z,0
2016-08-12T02:40:42.105Z,0
2016-08-12T02:41:41.411Z,0
2016-08-12T02:42:40.713Z,0
2016-08-12T02:43:42.828Z,0
2016-08-12T02:44:42.835Z,0
2016-08-12T02:45:42.142Z,0
2016-08-12T02:46:41.463Z,0
2016-08-12T02:47:42.147Z,0
2016-08-12T02:49:41.454Z,0
2016-08-12T02:50:41.463Z,0
2016-08-12T02:51:42.834Z,0
2016-08-12T02:52:41.473Z,0
2016-08-12T02:53:44.099Z,0
2016-08-12T02:54:40.775Z,0
2016-08-12T02:55:42.209Z,0
2016-08-12T02:56:40.786Z,0
2016-08-12T02:57:42.909Z,0
2016-08-12T02:58:42.210Z,0
2016-08-12T02:59:42.218Z,0
2016-08-12T03:00:42.928Z,0
2016-08-12T03:01:42.248Z,0
2016-08-12T03:02:42.631Z,0
2016-08-12T03:03:40.876Z,0
2016-08-12T03:04:42.448Z,0
2016-08-12T03:05:40.836Z,0
2016-08-12T03:06:43.762Z,0
2016-08-12T03:07:40.140Z,0
2016-08-12T03:08:40.922Z,0
2016-08-12T03:09:42.271Z,0
2016-08-12T03:10:41.582Z,0
2016-08-12T03:11:42.288Z,0
2016-08-12T03:12:42.298Z,0
2016-08-12T03:13:42.592Z,0
2016-08-12T03:14:40.885Z,0
2016-08-12T03:15:42.613Z,0
2016-08-12T03:16:42.313Z,0
2016-08-12T03:17:43.172Z,0
2016-08-12T03:19:42.340Z,0
2016-08-12T03:20:40.997Z,0
2016-08-12T03:21:43.049Z,0
2016-08-12T03:22:42.347Z,0
2016-08-12T03:23:40.235Z,0
2016-08-12T03:24:44.169Z,0
2016-08-12T03:25:41.660Z,0
2016-08-12T03:26:42.371Z,0
2016-08-12T03:27:41.013Z,0
2016-08-12T03:28:40.982Z,0
2016-08-12T03:29:41.698Z,0
2016-08-12T03:30:41.691Z,0
2016-08-12T03:31:42.400Z,0
2016-08-12T03:32:40.998Z,0
2016-08-12T03:34:43.123Z,0
2016-08-12T03:35:42.423Z,0
2016-08-12T03:36:41.724Z,0
2016-08-12T03:37:44.389Z,0
2016-08-12T03:38:42.497Z,0
2016-08-12T03:39:43.542Z,0
2016-08-12T03:40:41.037Z,0
2016-08-12T03:41:42.458Z,0
2016-08-12T03:42:41.056Z,0
2016-08-12T03:43:41.764Z,0
2016-08-12T03:44:41.067Z,0
2016-08-12T03:45:43.185Z,0
2016-08-12T03:46:42.490Z,0
2016-08-12T03:47:41.074Z,0
2016-08-12T03:48:43.096Z,0
2016-08-12T03:49:41.084Z,0
2016-08-12T03:50:42.453Z,0
2016-08-12T03:51:42.526Z,0
2016-08-12T03:52:41.555Z,0
2016-08-12T03:53:42.524Z,0
2016-08-12T03:54:41.872Z,0
2016-08-12T03:55:41.831Z,0
2016-08-12T03:56:41.829Z,0
2016-08-12T03:57:42.544Z,0
2016-08-12T03:58:43.274Z,0
2016-08-12T03:59:41.144Z,0
2016-08-12T04:00:41.855Z,0
2016-08-12T04:01:43.027Z,0
2016-08-12T04:02:41.159Z,0
2016-08-12T04:03:43.676Z,0
2016-08-12T04:04:41.882Z,0
2016-08-12T04:05:42.591Z,0
2016-08-12T04:06:42.644Z,0
2016-08-12T04:07:42.608Z,0
2016-08-12T04:08:41.192Z,0
2016-08-12T04:09:42.615Z,0
2016-08-12T04:10:42.317Z,0
2016-08-12T04:11:42.634Z,0
2016-08-12T04:12:44.711Z,0
2016-08-12T04:13:41.225Z,0
2016-08-12T04:14:43.918Z,0
2016-08-12T04:15:41.232Z,0
2016-08-12T04:16:41.961Z,0
2016-08-12T04:17:41.253Z,0
2016-08-12T04:18:42.715Z,0
2016-08-12T04:19:41.965Z,0
2016-08-12T04:20:42.036Z,0
2016-08-12T04:21:41.975Z,0
2016-08-12T04:22:41.346Z,0
2016-08-12T04:23:42.041Z,0
2016-08-12T04:24:42.703Z,0
2016-08-12T04:25:46.155Z,0
2016-08-12T04:26:43.432Z,0
2016-08-12T04:27:42.008Z,0
2016-08-12T04:28:42.730Z,0
2016-08-12T04:29:42.073Z,0
2016-08-12T04:30:43.442Z,0
2016-08-12T04:31:42.739Z,0
2016-08-12T04:32:42.038Z,0
2016-08-12T04:33:42.755Z,0
2016-08-12T04:34:42.196Z,0
2016-08-12T04:35:41.349Z,0
2016-08-12T04:36:42.714Z,0
2016-08-12T04:37:42.929Z,0
2016-08-12T04:38:42.127Z,0
2016-08-12T04:39:43.513Z,0
2016-08-12T04:40:42.148Z,0
2016-08-12T04:41:42.090Z,0
2016-08-12T04:42:40.684Z,0
2016-08-12T04:43:43.519Z,0
2016-08-12T04:44:42.811Z,0
2016-08-12T04:45:44.502Z,0
2016-08-12T04:46:42.829Z,0
2016-08-12T04:47:43.392Z,0
2016-08-12T04:48:42.848Z,0
2016-08-12T04:49:42.141Z,0
2016-08-12T04:50:42.859Z,0
2016-08-12T04:51:41.442Z,0
2016-08-12T04:52:41.463Z,0
2016-08-12T04:53:43.595Z,0
2016-08-12T04:54:42.912Z,0
2016-08-12T04:55:42.879Z,0
2016-08-12T04:56:42.884Z,0
2016-08-12T04:57:42.891Z,0
2016-08-12T04:58:42.853Z,0
2016-08-12T04:59:41.489Z,0
2016-08-12T05:00:42.208Z,0
2016-08-12T05:01:42.208Z,0
2016-08-12T05:02:43.627Z,0
2016-08-12T05:03:42.214Z,0
2016-08-12T05:04:42.930Z,0
2016-08-12T05:05:42.953Z,0
2016-08-12T05:06:42.237Z,0
2016-08-12T05:07:42.243Z,0
2016-08-12T05:08:40.830Z,0
2016-08-12T05:09:44.352Z,0
2016-08-12T05:10:42.252Z,0
2016-08-12T05:11:41.764Z,0
2016-08-12T05:12:42.266Z,0
2016-08-12T05:13:42.995Z,0
2016-08-12T05:14:42.291Z,0
2016-08-12T05:15:43.700Z,0
2016-08-12T05:16:42.294Z,0
2016-08-12T05:17:42.306Z,0
2016-08-12T05:18:42.310Z,0
2016-08-12T05:19:41.613Z,0
2016-08-12T05:20:43.231Z,0
2016-08-12T05:21:42.327Z,0
2016-08-12T05:22:41.817Z,0
2016-08-12T05:23:43.043Z,0
2016-08-12T05:24:40.939Z,0
2016-08-12T05:25:42.342Z,0
2016-08-12T05:26:41.647Z,0
2016-08-12T05:27:43.065Z,0
2016-08-12T05:28:42.411Z,0
2016-08-12T05:29:42.425Z,0
2016-08-12T05:30:43.087Z,0
2016-08-12T05:31:42.234Z,0
2016-08-12T05:32:42.401Z,0
2016-08-12T05:33:41.681Z,0
2016-08-12T05:34:43.214Z,0
2016-08-12T05:35:42.572Z,0
2016-08-12T05:36:43.121Z,0
2016-08-12T05:37:42.419Z,0
2016-08-12T05:38:42.483Z,0
2016-08-12T05:39:43.135Z,0
2016-08-12T05:40:42.434Z,0
2016-08-12T05:41:42.492Z,0
2016-08-12T05:42:43.211Z,0
2016-08-12T05:43:42.454Z,0
2016-08-12T05:44:44.523Z,0
2016-08-12T05:45:43.170Z,0
2016-08-12T05:46:42.971Z,0
2016-08-12T05:47:43.181Z,0
2016-08-12T05:48:42.476Z,0
2016-08-12T05:49:42.482Z,0
2016-08-12T05:50:43.910Z,0
2016-08-12T05:51:42.497Z,0
2016-08-12T05:52:43.920Z,0
2016-08-12T05:53:42.657Z,0
2016-08-12T05:54:42.524Z,0
2016-08-12T05:55:44.740Z,0
2016-08-12T05:56:42.535Z,0
2016-08-12T05:57:42.537Z,0
2016-08-12T05:58:43.949Z,0
2016-08-12T05:59:41.844Z,0
2016-08-12T06:00:43.968Z,0
2016-08-12T06:01:43.261Z,0
2016-08-12T06:02:41.856Z,0
2016-08-12T06:03:42.570Z,0
2016-08-12T06:04:42.572Z,0
2016-08-12T06:05:41.869Z,0
2016-08-12T06:06:44.089Z,0
2016-08-12T06:07:42.587Z,0
2016-08-12T06:08:42.649Z,0
2016-08-12T06:09:44.013Z,0
2016-08-12T06:10:42.605Z,0
2016-08-12T06:11:41.903Z,0
2016-08-12T06:12:41.961Z,0
2016-08-12T06:13:42.621Z,0
2016-08-12T06:14:42.634Z,0
2016-08-12T06:15:43.344Z,0
2016-08-12T06:16:44.057Z,0
2016-08-12T06:17:44.306Z,0
2016-08-12T06:18:43.362Z,0
2016-08-12T06:19:43.368Z,0
2016-08-12T06:20:43.379Z,0
2016-08-12T06:21:41.315Z,0
2016-08-12T06:22:42.686Z,0
2016-08-12T06:23:43.384Z,0
2016-08-12T06:24:43.440Z,0
2016-08-12T06:25:42.693Z,5
2016-08-12T06:26:42.697Z,5
2016-08-12T06:27:42.753Z,5
2016-08-12T06:28:43.914Z,5
2016-08-12T06:29:42.764Z,5
2016-08-12T06:30:42.722Z,5
2016-08-12T06:31:42.776Z,5
2016-08-12T06:32:43.897Z,5
2016-08-12T06:33:43.444Z,5
2016-08-12T06:34:43.459Z,5
2016-08-12T06:35:42.043Z,5
2016-08-12T06:36:42.867Z,5
2016-08-12T06:37:43.469Z,5
2016-08-12T06:38:42.788Z,5
2016-08-12T06:39:44.340Z,5
2016-08-12T06:40:42.779Z,5
2016-08-12T06:41:42.076Z,5
2016-08-12T06:42:42.792Z,5
2016-08-12T06:43:44.148Z,5
2016-08-12T06:44:42.851Z,5
2016-08-12T06:45:42.812Z,0
2016-08-12T06:46:43.573Z,5
2016-08-12T06:47:44.235Z,5
2016-08-12T06:48:43.070Z,5
2016-08-12T06:49:42.833Z,5
2016-08-12T06:50:42.136Z,5
2016-08-12T06:51:42.844Z,5
2016-08-12T06:52:42.848Z,5
2016-08-12T06:53:44.274Z,5
2016-08-12T06:54:44.322Z,10
2016-08-12T06:55:42.864Z,10
2016-08-12T06:56:43.583Z,10
2016-08-12T06:57:42.877Z,10
2016-08-12T06:58:42.881Z,10
2016-08-12T06:59:43.591Z,10
2016-08-12T07:00:42.894Z,10
2016-08-12T07:01:43.662Z,10
2016-08-12T07:02:44.316Z,5
2016-08-12T07:03:41.610Z,10
2016-08-12T07:04:42.213Z,5
2016-08-12T07:05:42.965Z,5
2016-08-12T07:06:44.400Z,10
2016-08-12T07:07:42.069Z,10
2016-08-12T07:08:42.232Z,5
2016-08-12T07:09:42.244Z,5
2016-08-12T07:10:43.661Z,5
2016-08-12T07:11:42.964Z,5
2016-08-12T07:12:43.667Z,5
2016-08-12T07:13:42.973Z,5
2016-08-12T07:14:44.735Z,5
2016-08-12T07:15:42.981Z,5
2016-08-12T07:16:43.995Z,5
2016-08-12T07:17:42.990Z,5
2016-08-12T07:18:45.315Z,5
2016-08-12T07:19:43.708Z,5
2016-08-12T07:20:43.021Z,5
2016-08-12T07:21:42.309Z,5
2016-08-12T07:22:44.432Z,5
2016-08-12T07:23:43.028Z,5
2016-08-12T07:24:43.085Z,5
2016-08-12T07:25:44.876Z,5
2016-08-12T07:26:43.044Z,5
2016-08-12T07:27:43.560Z,5
2016-08-12T07:28:43.074Z,5
2016-08-12T07:29:45.065Z,10
2016-08-12T07:30:43.066Z,5
2016-08-12T07:31:43.879Z,5
2016-08-12T07:32:43.851Z,5
2016-08-12T07:33:43.798Z,10
2016-08-12T07:34:43.800Z,10
2016-08-12T07:35:43.802Z,10
2016-08-12T07:36:41.686Z,10
2016-08-12T07:37:43.821Z,10
2016-08-12T07:38:43.823Z,10
2016-08-12T07:39:43.177Z,10
2016-08-12T07:40:44.971Z,10
2016-08-12T07:41:42.424Z,10
2016-08-12T07:42:45.669Z,10
2016-08-12T07:43:44.577Z,10
2016-08-12T07:44:43.863Z,10
2016-08-12T07:45:43.306Z,10
2016-08-12T07:46:44.583Z,10
2016-08-12T07:47:42.519Z,10
2016-08-12T07:48:43.229Z,10
2016-08-12T07:49:42.646Z,10
2016-08-12T07:50:43.947Z,10
2016-08-12T07:51:44.742Z,10
2016-08-12T07:52:43.910Z,15
2016-08-12T07:53:43.919Z,15
2016-08-12T07:54:43.211Z,15
2016-08-12T07:55:43.916Z,15
2016-08-12T07:56:43.231Z,15
2016-08-12T07:57:42.570Z,15
2016-08-12T07:58:43.227Z,15
2016-08-12T07:59:44.650Z,15
2016-08-12T08:00:44.935Z,10
2016-08-12T08:01:44.000Z,15
2016-08-12T08:02:44.459Z,15
2016-08-12T08:03:43.964Z,15
2016-08-12T08:04:43.636Z,10
2016-08-12T08:05:43.276Z,10
2016-08-12T08:06:43.281Z,10
2016-08-12T08:07:44.695Z,10
2016-08-12T08:08:43.358Z,5
2016-08-12T08:09:43.293Z,10
2016-08-12T08:10:42.594Z,10
2016-08-12T08:11:43.208Z,10
2016-08-12T08:12:44.728Z,10
2016-08-12T08:13:44.634Z,10
2016-08-12T08:14:44.031Z,10
2016-08-12T08:15:45.738Z,10
2016-08-12T08:16:42.626Z,10
2016-08-12T08:17:42.641Z,10
2016-08-12T08:18:42.646Z,10
2016-08-12T08:19:42.673Z,10
2016-08-12T08:20:44.075Z,10
2016-08-12T08:21:44.072Z,10
2016-08-12T08:22:44.786Z,5
2016-08-12T08:23:44.133Z,10
2016-08-12T08:24:44.738Z,5
2016-08-12T08:25:42.682Z,10
2016-08-12T08:26:43.395Z,10
2016-08-12T08:27:44.815Z,10
2016-08-12T08:28:44.118Z,10
2016-08-12T08:29:43.462Z,15
2016-08-12T08:30:43.423Z,15
2016-08-12T08:31:44.182Z,10
2016-08-12T08:32:42.722Z,15
2016-08-12T08:33:44.191Z,15
2016-08-12T08:35:45.265Z,20
2016-08-12T08:36:43.450Z,20
2016-08-12T08:37:44.520Z,20
2016-08-12T08:38:44.171Z,20
2016-08-12T08:39:43.469Z,15
2016-08-12T08:40:43.478Z,20
2016-08-12T08:41:43.480Z,20
2016-08-12T08:42:44.191Z,20
2016-08-12T08:43:43.558Z,20
2016-08-12T08:44:42.805Z,20
2016-08-12T08:45:43.573Z,25
2016-08-12T08:46:42.819Z,30
2016-08-12T08:47:42.815Z,25
2016-08-12T08:48:44.021Z,25
2016-08-12T08:50:44.559Z,20
2016-08-12T08:51:43.537Z,20
2016-08-12T08:52:42.887Z,15
2016-08-12T08:53:42.133Z,15
2016-08-12T08:54:43.564Z,20
2016-08-12T08:55:44.268Z,20
2016-08-12T08:56:44.272Z,20
2016-08-12T08:57:44.487Z,20
2016-08-12T08:58:43.580Z,20
2016-08-12T08:59:43.685Z,20
2016-08-12T09:00:42.887Z,15
2016-08-12T09:01:45.047Z,15
2016-08-12T09:02:42.896Z,20
2016-08-12T09:03:43.612Z,20
2016-08-12T09:04:45.033Z,20
2016-08-12T09:05:45.032Z,20
2016-08-12T09:06:42.214Z,25
2016-08-12T09:07:44.345Z,25
2016-08-12T09:08:44.547Z,20
2016-08-12T09:09:43.651Z,15
2016-08-12T09:10:44.367Z,15
2016-08-12T09:11:44.370Z,15
2016-08-12T09:12:44.970Z,15
2016-08-12T09:13:43.670Z,15
2016-08-12T09:14:43.676Z,15
2016-08-12T09:15:42.969Z,15
2016-08-12T09:16:42.276Z,20
2016-08-12T09:17:43.699Z,15
2016-08-12T09:18:44.411Z,20
2016-08-12T09:19:44.512Z,20
2016-08-12T09:20:44.424Z,20
2016-08-12T09:21:43.717Z,25
2016-08-12T09:22:43.771Z,25
2016-08-12T09:23:44.430Z,20
2016-08-12T09:24:44.456Z,20
2016-08-12T09:25:43.083Z,20
2016-08-12T09:26:43.752Z,20
2016-08-12T09:27:43.749Z,20
2016-08-12T09:28:44.470Z,15
2016-08-12T09:29:43.762Z,15
2016-08-12T09:30:43.066Z,20
2016-08-12T09:31:43.070Z,25
2016-08-12T09:32:46.303Z,25
2016-08-12T09:33:45.301Z,25
2016-08-12T09:34:44.083Z,25
2016-08-12T09:35:45.269Z,20
2016-08-12T09:36:43.812Z,30
2016-08-12T09:37:43.103Z,35
2016-08-12T09:38:44.526Z,35
2016-08-12T09:39:44.533Z,25
2016-08-12T09:40:45.844Z,20
2016-08-12T09:41:46.752Z,25
2016-08-12T09:42:43.847Z,15
2016-08-12T09:43:58.775Z,10
2016-08-12T09:44:45.273Z,10
2016-08-12T09:45:44.311Z,10
2016-08-12T09:46:44.624Z,10
2016-08-12T09:47:43.874Z,10
2016-08-12T09:48:43.879Z,10
2016-08-12T09:49:44.598Z,10
2016-08-12T09:50:43.894Z,10
2016-08-12T09:51:44.605Z,15
2016-08-12T09:52:44.613Z,15
2016-08-12T09:53:43.912Z,15
2016-08-12T09:54:43.914Z,15
2016-08-12T09:55:45.338Z,15
2016-08-12T09:56:44.634Z,15
2016-08-12T09:57:43.238Z,15
2016-08-12T09:58:45.858Z,15
2016-08-12T09:59:43.236Z,15
2016-08-12T10:00:44.663Z,10
2016-08-12T10:01:44.006Z,10
2016-08-12T10:02:44.668Z,10
2016-08-12T10:03:45.380Z,10
2016-08-12T10:04:44.680Z,10
2016-08-12T10:05:42.745Z,15
2016-08-12T10:06:44.715Z,10
2016-08-12T10:07:44.751Z,10
2016-08-12T10:08:44.061Z,10
2016-08-12T10:09:45.375Z,5
2016-08-12T10:10:44.765Z,5
2016-08-12T10:11:45.497Z,5
2016-08-12T10:12:44.025Z,5
2016-08-12T10:13:44.125Z,5
2016-08-12T10:14:43.339Z,5
2016-08-12T10:15:44.753Z,5
2016-08-12T10:16:44.050Z,5
2016-08-12T10:17:44.049Z,5
2016-08-12T10:18:44.210Z,5
2016-08-12T10:19:44.824Z,5
2016-08-12T10:20:43.368Z,5
2016-08-12T10:21:44.781Z,5
2016-08-12T10:22:44.088Z,5
2016-08-12T10:23:44.090Z,10
2016-08-12T10:24:44.093Z,15
2016-08-12T10:25:43.389Z,15
2016-08-12T10:26:44.108Z,10
2016-08-12T10:27:44.824Z,10
2016-08-12T10:28:43.412Z,10
2016-08-12T10:29:45.097Z,10
2016-08-12T10:30:44.172Z,10
2016-08-12T10:31:45.740Z,10
2016-08-12T10:32:42.747Z,10
2016-08-12T10:33:46.454Z,10
2016-08-12T10:34:44.879Z,10
2016-08-12T10:35:43.458Z,10
2016-08-12T10:36:44.889Z,15
2016-08-12T10:37:43.515Z,10
2016-08-12T10:38:44.891Z,10
2016-08-12T10:39:44.184Z,10
2016-08-12T10:40:46.578Z,10
2016-08-12T10:41:44.191Z,10
2016-08-12T10:42:45.399Z,10
2016-08-12T10:43:43.544Z,10
2016-08-12T10:44:46.843Z,10
2016-08-12T10:45:44.220Z,5
2016-08-12T10:46:45.650Z,10
2016-08-12T10:47:44.228Z,10
2016-08-12T10:48:44.949Z,15
2016-08-12T10:49:43.581Z,20
2016-08-12T10:50:45.057Z,20
2016-08-12T10:51:44.251Z,20
2016-08-12T10:52:44.967Z,20
2016-08-12T10:53:44.915Z,20
2016-08-12T10:54:43.586Z,20
2016-08-12T10:55:46.977Z,20
2016-08-12T10:56:44.989Z,20
2016-08-12T10:57:44.998Z,20
2016-08-12T10:58:45.014Z,20
2016-08-12T10:59:44.311Z,20
2016-08-12T11:00:43.614Z,20
2016-08-12T11:01:45.018Z,20
2016-08-12T11:02:45.029Z,15
2016-08-12T11:03:44.324Z,15
2016-08-12T11:04:44.382Z,15
2016-08-12T11:05:44.344Z,10
2016-08-12T11:06:46.338Z,10
2016-08-12T11:07:44.394Z,10
2016-08-12T11:08:45.113Z,10
2016-08-12T11:09:45.122Z,10
2016-08-12T11:10:45.090Z,10
2016-08-12T11:11:45.080Z,10
2016-08-12T11:12:43.779Z,15
2016-08-12T11:13:45.156Z,10
2016-08-12T11:14:45.108Z,10
2016-08-12T11:15:45.261Z,10
2016-08-12T11:16:44.397Z,10
2016-08-12T11:17:46.012Z,15
2016-08-12T11:18:44.412Z,15
2016-08-12T11:19:45.269Z,15
2016-08-12T11:20:43.161Z,15
2016-08-12T11:21:45.149Z,15
2016-08-12T11:22:44.443Z,20
2016-08-12T11:23:43.787Z,20
2016-08-12T11:24:44.449Z,20
2016-08-12T11:25:45.167Z,20
2016-08-12T11:26:44.460Z,20
2016-08-12T11:27:44.472Z,25
2016-08-12T11:29:43.076Z,30
2016-08-12T11:30:45.340Z,35
2016-08-12T11:31:45.907Z,35
2016-08-12T11:32:44.497Z,40
2016-08-12T11:33:45.867Z,35
2016-08-12T11:34:44.511Z,30
2016-08-12T11:35:44.580Z,25
2016-08-12T11:36:45.237Z,20
2016-08-12T11:37:45.943Z,30
2016-08-12T11:38:45.946Z,30
2016-08-12T11:39:46.616Z,25
2016-08-12T11:40:43.835Z,30
2016-08-12T11:41:47.238Z,35
2016-08-12T11:42:45.265Z,40
2016-08-12T11:43:44.613Z,40
2016-08-12T11:44:44.573Z,45
2016-08-12T11:45:45.281Z,45
2016-08-12T11:46:45.290Z,40
2016-08-12T11:47:44.686Z,40
2016-08-12T11:48:43.181Z,40
2016-08-12T11:49:44.648Z,40
2016-08-12T11:50:46.185Z,40
2016-08-12T11:51:45.319Z,40
2016-08-12T11:52:44.670Z,40
2016-08-12T11:53:43.934Z,45
2016-08-12T11:54:46.045Z,45
2016-08-12T11:55:43.948Z,50
2016-08-12T11:56:43.942Z,55
2016-08-12T11:57:43.996Z,60
2016-08-12T11:58:43.954Z,60
2016-08-12T11:59:45.373Z,55
2016-08-12T12:00:44.687Z,55
2016-08-12T12:01:45.480Z,60
2016-08-12T12:02:43.978Z,65
2016-08-12T12:03:45.407Z,65
2016-08-12T12:04:45.406Z,65
2016-08-12T12:05:45.408Z,65
2016-08-12T12:06:45.416Z,65
2016-08-12T12:07:45.477Z,65
2016-08-12T12:08:45.426Z,60
2016-08-12T12:09:44.729Z,60
2016-08-12T12:10:45.499Z,65
2016-08-12T12:11:45.454Z,75
2016-08-12T12:12:45.808Z,75
2016-08-12T12:13:44.755Z,75
2016-08-12T12:14:46.379Z,75
2016-08-12T12:15:44.117Z,80
2016-08-12T12:16:45.586Z,80
2016-08-12T12:17:44.834Z,85
2016-08-12T12:18:45.496Z,90
2016-08-12T12:19:44.795Z,85
2016-08-12T12:20:44.145Z,80
2016-08-12T12:21:46.221Z,80
2016-08-12T12:22:44.811Z,80
2016-08-12T12:23:45.319Z,75
2016-08-12T12:24:44.820Z,70
2016-08-12T12:25:44.126Z,60
2016-08-12T12:26:45.545Z,60
2016-08-12T12:27:45.852Z,60
2016-08-12T12:28:44.847Z,55
2016-08-12T12:29:45.569Z,60
2016-08-12T12:30:45.624Z,65
2016-08-12T12:31:44.895Z,65
2016-08-12T12:32:45.632Z,60
2016-08-12T12:33:43.471Z,50
2016-08-12T12:34:44.890Z,50
2016-08-12T12:35:45.712Z,60
2016-08-12T12:36:46.749Z,65
2016-08-12T12:37:46.323Z,75
2016-08-12T12:38:47.381Z,85
2016-08-12T12:39:44.921Z,85
2016-08-12T12:40:44.225Z,85
2016-08-12T12:41:44.987Z,85
2016-08-12T12:42:44.996Z,85
2016-08-12T12:43:45.660Z,80
2016-08-12T12:44:44.956Z,85
2016-08-12T12:45:45.665Z,85
2016-08-12T12:46:45.681Z,85
2016-08-12T12:47:46.139Z,85
2016-08-12T12:48:46.401Z,80
2016-08-12T12:49:44.538Z,80
2016-08-12T12:50:43.581Z,85
2016-08-12T12:51:46.572Z,85
2016-08-12T12:52:46.422Z,80
2016-08-12T12:53:45.011Z,70
2016-08-12T12:54:45.737Z,70
2016-08-12T12:55:45.734Z,60
2016-08-12T12:56:45.743Z,55
2016-08-12T12:57:45.050Z,55
2016-08-12T12:58:46.857Z,55
2016-08-12T12:59:46.039Z,55
2016-08-12T13:00:45.064Z,55
2016-08-12T13:01:45.778Z,60
2016-08-12T13:02:46.685Z,60
2016-08-12T13:03:44.378Z,65
2016-08-12T13:04:45.892Z,65
2016-08-12T13:05:45.801Z,60
2016-08-12T13:06:45.112Z,60
2016-08-12T13:07:45.108Z,60
2016-08-12T13:08:45.875Z,65
2016-08-12T13:09:46.586Z,75
2016-08-12T13:10:45.850Z,80
2016-08-12T13:11:45.131Z,85
2016-08-12T13:12:45.161Z,85
2016-08-12T13:13:43.846Z,85
2016-08-12T13:14:45.918Z,85
2016-08-12T13:15:45.173Z,90
2016-08-12T13:16:45.877Z,95
2016-08-12T13:17:44.465Z,90
2016-08-12T13:18:45.938Z,90
2016-08-12T13:19:45.898Z,85
2016-08-12T13:20:46.608Z,80
2016-08-12T13:21:45.248Z,75
2016-08-12T13:22:45.265Z,75
2016-08-12T13:23:45.261Z,70
2016-08-12T13:24:45.968Z,65
2016-08-12T13:25:44.614Z,65
2016-08-12T13:26:44.535Z,80
2016-08-12T13:27:44.539Z,75
2016-08-12T13:28:44.538Z,85
2016-08-12T13:29:45.251Z,80
2016-08-12T13:30:43.843Z,85
2016-08-12T13:31:45.973Z,80
2016-08-12T13:32:44.620Z,80
2016-08-12T13:33:46.021Z,75
2016-08-12T13:34:45.287Z,70
2016-08-12T13:35:46.046Z,70
2016-08-12T13:36:46.002Z,70
2016-08-12T13:37:45.301Z,70
2016-08-12T13:38:46.726Z,65
2016-08-12T13:39:46.735Z,65
2016-08-12T13:40:44.620Z,65
2016-08-12T13:41:46.034Z,65
2016-08-12T13:42:46.050Z,75
2016-08-12T13:43:46.874Z,75
2016-08-12T13:44:45.616Z,75
2016-08-12T13:45:45.405Z,75
2016-08-12T13:46:46.469Z,75
2016-08-12T13:47:46.799Z,75
2016-08-12T13:48:44.666Z,70
2016-08-12T13:49:45.387Z,70
2016-08-12T13:50:46.107Z,65
2016-08-12T13:51:46.111Z,65
2016-08-12T13:52:45.462Z,65
2016-08-12T13:53:45.413Z,60
2016-08-12T13:54:45.412Z,60
2016-08-12T13:55:46.646Z,60
2016-08-12T13:56:46.139Z,65
2016-08-12T13:57:46.143Z,65
2016-08-12T13:58:46.150Z,65
2016-08-12T13:59:46.525Z,60
2016-08-12T14:00:44.747Z,60
2016-08-12T14:01:44.767Z,55
2016-08-12T14:02:45.476Z,60
2016-08-12T14:03:46.887Z,55
2016-08-12T14:04:44.781Z,55
2016-08-12T14:05:46.907Z,60
2016-08-12T14:06:45.593Z,55
2016-08-12T14:07:46.916Z,50
2016-08-12T14:08:46.261Z,45
2016-08-12T14:09:44.098Z,45
2016-08-12T14:10:46.771Z,50
2016-08-12T14:11:46.236Z,50
2016-08-12T14:12:46.947Z,50
2016-08-12T14:13:45.551Z,50
2016-08-12T14:14:44.845Z,55
2016-08-12T14:15:46.312Z,55
2016-08-12T14:16:45.560Z,60
2016-08-12T14:17:46.276Z,65
2016-08-12T14:18:44.871Z,60
2016-08-12T14:19:47.040Z,60
2016-08-12T14:20:46.294Z,65
2016-08-12T14:21:47.042Z,65
2016-08-12T14:22:44.892Z,65
2016-08-12T14:23:47.483Z,60
2016-08-12T14:24:47.073Z,60
2016-08-12T14:25:45.639Z,55
2016-08-12T14:26:46.400Z,55
2016-08-12T14:27:44.925Z,50
2016-08-12T14:28:44.937Z,55
2016-08-12T14:29:44.955Z,60
2016-08-12T14:30:47.983Z,55
2016-08-12T14:31:45.675Z,50
2016-08-12T14:32:48.573Z,50
2016-08-12T14:33:45.721Z,50
2016-08-12T14:34:45.679Z,50
2016-08-12T14:35:46.397Z,50
2016-08-12T14:36:47.112Z,50
2016-08-12T14:37:46.463Z,55
2016-08-12T14:38:45.030Z,55